Time;durP1;ratioP1;P1;durP2;ratioP2;P2;SDS_P1;SDS_P2;PMS_P1;PMS_P2;Temp;Humidity;BMP_temperature;BMP_pressure;BME280_temperature;BME280_humidity;BME280_pressure;Samples;Min_cycle;Max_cycle;Signal;HPM_P1;HPM_P2
2023/03/28 00:00:55;;;;;;;11.63;1.13;;;-1.20;99.90;;;;;;5074174;28;20047;-20
2023/03/28 00:03:21;;;;;;;11.53;1.40;;;-1.00;99.90;;;;;;5074219;28;20040;-20
2023/03/28 00:05:49;;;;;;;5.53;1.07;;;-0.30;99.90;;;;;;5074149;28;20490;-20
2023/03/28 00:08:18;;;;;;;12.63;1.97;;;-0.60;99.90;;;;;;5074088;28;20055;-20
2023/03/28 00:10:44;;;;;;;10.20;2.17;;;-1.10;99.90;;;;;;5074814;28;20040;-20
2023/03/28 00:13:12;;;;;;;7.17;1.07;;;-1.20;99.90;;;;;;5074553;28;20037;-20
2023/03/28 00:15:39;;;;;;;7.53;1.50;;;-1.20;99.90;;;;;;5073917;28;20051;-20
2023/03/28 00:18:06;;;;;;;13.57;1.60;;;-1.30;99.90;;;;;;5073985;28;20049;-20
2023/03/28 00:20:37;;;;;;;5.33;1.00;;;-1.20;99.90;;;;;;5074235;28;20371;-20
2023/03/28 00:23:03;;;;;;;8.33;1.30;;;-1.30;99.90;;;;;;5073939;28;20074;-20
2023/03/28 00:25:33;;;;;;;14.50;1.47;;;-0.40;99.90;;;;;;5073734;28;20124;-20
2023/03/28 00:27:59;;;;;;;7.77;1.10;;;-1.50;99.90;;;;;;5073764;28;20049;-20
2023/03/28 00:30:25;;;;;;;10.33;2.33;;;-1.40;99.90;;;;;;5073830;28;20052;-21
2023/03/28 00:32:51;;;;;;;10.40;1.23;;;-1.40;1.00;;;;;;5072595;28;20048;-20
2023/03/28 00:35:17;;;;;;;9.83;1.93;;;-1.50;1.00;;;;;;5073718;28;20055;-20
2023/03/28 00:37:44;;;;;;;13.67;1.87;;;-1.50;99.90;;;;;;5056105;28;20529;-20
2023/03/28 00:40:12;;;;;;;10.63;1.30;;;-1.70;99.90;;;;;;5073706;28;20506;-20
2023/03/28 00:42:41;;;;;;;10.20;1.00;;;-1.80;99.90;;;;;;5056241;28;20052;-20
2023/03/28 00:45:11;;;;;;;11.30;2.10;;;-1.90;99.90;;;;;;5073618;28;20464;-20
2023/03/28 00:47:44;;;;;;;12.20;1.30;;;-1.90;99.90;;;;;;5072678;28;20048;-20
2023/03/28 00:50:23;;;;;;;14.57;1.33;;;-1.90;1.00;;;;;;5073145;28;20502;-20
2023/03/28 00:53:12;;;;;;;11.50;1.43;;;-1.90;1.00;;;;;;5073522;28;20091;-20
2023/03/28 00:55:56;;;;;;;15.97;3.20;;;-2.00;1.00;;;;;;5073581;28;20060;-20
2023/03/28 00:58:26;;;;;;;10.65;1.55;;;-1.80;1.00;;;;;;5073862;28;20049;-20
2023/03/28 01:00:53;;;;;;;10.03;1.90;;;-1.60;1.00;;;;;;5074121;28;20134;-20
2023/03/28 01:03:21;;;;;;;11.10;1.73;;;-1.00;1.00;;;;;;5074013;28;20059;-20
2023/03/28 01:05:48;;;;;;;12.57;1.90;;;-2.20;1.00;;;;;;5073446;28;20041;-20
2023/03/28 01:08:21;;;;;;;10.03;1.50;;;-2.10;1.00;;;;;;5073952;28;20049;-20
2023/03/28 01:10:47;;;;;;;;;;;-2.10;1.00;;;;;;5074344;28;20115;-20
2023/03/28 01:13:17;;;;;;;11.73;2.00;;;-1.90;1.00;;;;;;5073379;28;19973;-20
2023/03/28 01:15:43;;;;;;;12.53;1.10;;;-2.00;1.00;;;;;;5073462;28;20048;-20
2023/03/28 01:18:10;;;;;;;7.73;1.37;;;-2.00;1.00;;;;;;5072138;28;20098;-20
2023/03/28 01:20:45;;;;;;;8.60;1.30;;;-1.90;1.00;;;;;;5073841;28;20123;-20
2023/03/28 01:23:35;;;;;;;11.70;1.37;;;-1.90;1.00;;;;;;5072012;28;20078;-20
2023/03/28 01:26:07;;;;;;;9.47;2.50;;;-2.20;1.00;;;;;;5074117;28;20048;-20
2023/03/28 01:28:36;;;;;;;11.10;1.20;;;-2.10;1.00;;;;;;5072937;28;20491;-20
2023/03/28 01:31:23;;;;;;;9.57;1.80;;;-2.20;1.00;;;;;;5072123;28;20109;-20
2023/03/28 01:34:19;;;;;;;9.87;2.10;;;-2.10;1.00;;;;;;5073163;28;20041;-20
2023/03/28 01:37:04;;;;;;;6.60;1.00;;;-2.20;1.00;;;;;;5073520;28;20053;-20
2023/03/28 01:39:58;;;;;;;13.37;1.70;;;-2.20;1.00;;;;;;5077268;28;20048;-20
2023/03/28 01:42:41;;;;;;;12.38;3.17;;;-2.20;1.00;;;;;;5077126;28;20049;-20
2023/03/28 01:45:25;;;;;;;15.17;1.40;;;-2.30;1.00;;;;;;5076457;28;20449;-20
2023/03/28 01:48:05;;;;;;;;;;;-2.10;1.00;;;;;;5077198;28;20044;-20
2023/03/28 01:50:57;;;;;;;18.27;1.70;;;-2.30;1.00;;;;;;5058579;28;19970;-20
2023/03/28 01:53:52;;;;;;;12.13;1.37;;;-2.40;1.00;;;;;;5076706;28;20052;-20
2023/03/28 01:56:21;;;;;;;7.53;1.50;;;-2.20;1.00;;;;;;5076186;28;20428;-20
2023/03/28 01:59:08;;;;;;;9.90;1.90;;;-2.10;1.00;;;;;;5076556;28;20094;-20
2023/03/28 02:01:47;;;;;;;15.63;1.30;;;-2.10;1.00;;;;;;5077148;28;20040;-20
2023/03/28 02:04:16;;;;;;;9.87;2.00;;;-2.00;1.00;;;;;;5076759;28;20052;-20
2023/03/28 02:06:45;;;;;;;12.33;1.97;;;-1.70;1.00;;;;;;5076429;28;20581;-20
2023/03/28 02:09:13;;;;;;;11.43;1.33;;;-1.50;1.00;;;;;;5076444;28;20045;-20
2023/03/28 02:11:40;;;;;;;14.67;1.13;;;-1.50;1.00;;;;;;5076316;28;20429;-20
2023/03/28 02:14:12;;;;;;;9.50;1.27;;;-1.40;1.00;;;;;;5076565;28;20048;-21
2023/03/28 02:16:40;;;;;;;8.87;2.17;;;-1.10;1.00;;;;;;5076864;28;20507;-20
2023/03/28 02:19:07;;;;;;;8.97;1.43;;;-1.20;99.90;;;;;;5075228;28;20128;-20
2023/03/28 02:21:44;;;;;;;11.07;1.17;;;-0.50;99.90;;;;;;5074971;28;20123;-20
2023/03/28 02:24:11;;;;;;;11.73;2.20;;;-1.50;99.90;;;;;;5076162;28;20052;-21
2023/03/28 02:26:37;;;;;;;8.83;1.20;;;-1.10;1.00;;;;;;5058399;28;20048;-21
2023/03/28 02:29:05;;;;;;;13.63;1.50;;;-0.80;1.00;;;;;;5075105;28;20059;-20
2023/03/28 02:31:31;;;;;;;12.60;1.63;;;-0.90;99.90;;;;;;5075937;28;20416;-20
2023/03/28 02:33:58;;;;;;;9.60;1.23;;;-0.40;99.90;;;;;;5075946;28;20127;-21
2023/03/28 02:36:23;;;;;;;9.60;1.10;;;-0.50;99.90;;;;;;5074904;28;20044;-20
2023/03/28 02:38:54;;;;;;;9.93;1.93;;;-0.40;99.90;;;;;;5074829;28;20049;-20
2023/03/28 02:41:44;;;;;;;7.90;1.40;;;-0.50;99.90;;;;;;5075202;28;20182;-21
2023/03/28 02:44:19;;;;;;;9.27;1.70;;;-0.30;99.90;;;;;;5075779;28;20052;-21
2023/03/28 02:47:12;;;;;;;8.63;1.33;;;-0.30;99.90;;;;;;5075756;28;20086;-20
2023/03/28 02:50:02;;;;;;;9.05;0.90;;;-0.30;49.10;;;;;;5074285;28;20121;-20
2023/03/28 02:52:50;;;;;;;8.10;1.57;;;-0.30;5.30;;;;;;5076406;28;20052;-21
2023/03/28 02:55:43;;;;;;;9.37;1.13;;;-0.30;1.00;;;;;;5075555;28;20053;-21
2023/03/28 02:58:28;;;;;;;12.30;1.30;;;-0.50;1.00;;;;;;5076076;28;20131;-21
2023/03/28 03:00:55;;;;;;;13.50;1.97;;;-0.70;1.00;;;;;;5074766;28;20060;-21
2023/03/28 03:03:22;;;;;;;10.23;1.23;;;-0.90;1.00;;;;;;5074206;28;20044;-21
2023/03/28 03:05:48;;;;;;;10.90;1.77;;;-1.10;16.00;;;;;;5075328;28;20045;-21
2023/03/28 03:08:14;;;;;;;10.20;1.60;;;-0.80;99.90;;;;;;5074115;28;20114;-20
2023/03/28 03:10:40;;;;;;;9.43;1.20;;;-1.20;99.90;;;;;;5075128;28;20127;-20
2023/03/28 03:13:06;;;;;;;10.60;2.33;;;-0.90;99.90;;;;;;5075172;28;20225;-20
2023/03/28 03:15:34;;;;;;;18.93;1.50;;;-1.10;99.90;;;;;;5074033;28;20107;-21
2023/03/28 03:18:00;;;;;;;13.60;1.43;;;-1.20;99.90;;;;;;5075035;28;20052;-20
2023/03/28 03:20:32;;;;;;;8.30;1.00;;;-1.40;99.90;;;;;;5075018;28;20052;-20
2023/03/28 03:22:59;;;;;;;12.83;1.70;;;-1.60;99.90;;;;;;5075298;28;20441;-20
2023/03/28 03:25:26;;;;;;;11.53;1.27;;;-1.70;99.90;;;;;;5074915;28;20123;-20
2023/03/28 03:27:52;;;;;;;10.70;1.17;;;-1.80;99.90;;;;;;5074821;28;20071;-20
2023/03/28 03:30:18;;;;;;;11.83;1.60;;;-1.70;99.90;;;;;;5074789;28;20053;-20
2023/03/28 03:32:44;;;;;;;17.00;2.53;;;-1.90;99.90;;;;;;5074697;28;20036;-20
2023/03/28 03:35:10;;;;;;;9.50;1.20;;;-2.10;99.90;;;;;;5075228;28;20040;-21
2023/03/28 03:37:36;;;;;;;16.13;1.53;;;-2.20;99.90;;;;;;5056761;28;20048;-20
2023/03/28 03:40:04;;;;;;;8.47;1.30;;;-2.10;99.90;;;;;;5074457;28;20048;-21
2023/03/28 03:42:31;;;;;;;15.37;2.50;;;-2.10;99.90;;;;;;5074644;28;20109;-20
2023/03/28 03:44:57;;;;;;;14.30;1.60;;;-2.20;99.90;;;;;;5057843;28;20045;-20
2023/03/28 03:47:23;;;;;;;11.23;2.03;;;-2.40;99.90;;;;;;5054578;28;20368;-21
2023/03/28 03:49:49;;;;;;;22.83;2.03;;;-2.60;99.90;;;;;;5054157;28;20053;-21
2023/03/28 03:52:15;;;;;;;10.80;1.87;;;-2.50;99.90;;;;;;5052872;28;20487;-20
2023/03/28 03:54:41;;;;;;;16.97;1.80;;;-2.50;99.90;;;;;;5054249;28;20079;-21
2023/03/28 03:57:07;;;;;;;10.07;1.40;;;-2.60;1.00;;;;;;5054332;28;20053;-20
2023/03/28 03:59:32;;;;;;;14.53;1.80;;;-2.60;1.00;;;;;;5053941;28;20040;-20
2023/03/28 04:01:58;;;;;;;7.93;2.70;;;-2.70;1.00;;;;;;5054600;28;20053;-21
2023/03/28 04:04:24;;;;;;;17.70;2.40;;;-2.60;1.00;;;;;;5054720;28;20048;-20
2023/03/28 04:06:50;;;;;;;12.83;1.67;;;-2.30;1.00;;;;;;5053266;28;20048;-20
2023/03/28 04:09:16;;;;;;;6.77;1.30;;;-2.70;1.00;;;;;;5036030;28;20503;-21
2023/03/28 04:11:42;;;;;;;6.93;1.17;;;-2.80;1.00;;;;;;5054239;28;20090;-20
2023/03/28 04:14:08;;;;;;;15.93;1.43;;;-2.70;1.00;;;;;;5054351;28;20051;-21
2023/03/28 04:16:33;;;;;;;11.20;1.83;;;-2.90;1.00;;;;;;5052991;28;20471;-20
2023/03/28 04:18:59;;;;;;;10.83;1.93;;;-2.00;1.00;;;;;;5053963;28;20041;-20
2023/03/28 04:21:31;;;;;;;20.53;1.97;;;-2.90;99.90;;;;;;5052817;28;20045;-21
2023/03/28 04:24:00;;;;;;;12.43;1.20;;;-3.00;99.90;;;;;;5052734;28;20049;-20
2023/03/28 04:26:27;;;;;;;4.97;1.13;;;-3.10;99.90;;;;;;5053162;28;20502;-20
2023/03/28 04:28:54;;;;;;;14.07;1.77;;;-3.10;99.90;;;;;;5053753;28;20372;-20
2023/03/28 04:31:21;;;;;;;16.53;1.47;;;-3.40;1.00;;;;;;5052653;28;20483;-20
2023/03/28 04:33:47;;;;;;;13.90;1.70;;;-3.00;1.00;;;;;;5054258;28;20045;-20
2023/03/28 04:36:15;;;;;;;14.57;1.87;;;-2.90;1.00;;;;;;5054535;28;20041;-20
2023/03/28 04:38:44;;;;;;;18.67;1.67;;;-2.90;1.00;;;;;;5053672;28;20048;-20
2023/03/28 04:41:12;;;;;;;16.20;2.13;;;-2.70;1.00;;;;;;5053649;28;20049;-21
2023/03/28 04:43:38;;;;;;;10.93;2.73;;;-2.60;1.00;;;;;;5052651;28;20057;-21
2023/03/28 04:46:04;;;;;;;10.60;1.87;;;-2.40;1.00;;;;;;5052384;28;20133;-20
2023/03/28 04:48:30;;;;;;;16.40;2.97;;;-2.30;1.00;;;;;;5054084;28;20380;-20
2023/03/28 04:50:56;;;;;;;20.80;3.37;;;-2.20;1.00;;;;;;5053584;28;20095;-20
2023/03/28 04:53:22;;;;;;;14.00;2.57;;;-2.00;1.00;;;;;;5053512;28;20102;-20
2023/03/28 04:55:49;;;;;;;18.73;2.90;;;-2.00;1.00;;;;;;5035924;28;20554;-20
2023/03/28 04:58:22;;;;;;;13.37;2.50;;;-1.70;1.00;;;;;;5053463;28;20045;-20
2023/03/28 05:00:48;;;;;;;17.95;2.92;;;-1.60;1.00;;;;;;5053442;28;20052;-20
2023/03/28 05:03:17;;;;;;;13.73;1.90;;;-1.40;1.00;;;;;;5053700;28;20052;-20
2023/03/28 05:05:44;;;;;;;14.93;2.03;;;-1.20;1.00;;;;;;5052494;28;20041;-20
2023/03/28 05:08:11;;;;;;;15.53;2.57;;;-1.50;1.00;;;;;;5052225;28;20086;-20
2023/03/28 05:10:38;;;;;;;13.00;3.30;;;-1.00;1.00;;;;;;5053861;28;20049;-20
2023/03/28 05:13:04;;;;;;;12.30;2.13;;;-1.00;1.00;;;;;;5054769;28;20045;-21
2023/03/28 05:15:30;;;;;;;14.97;2.67;;;-1.00;1.00;;;;;;5057568;28;20044;-20
2023/03/28 05:17:56;;;;;;;7.33;1.80;;;-0.10;1.00;;;;;;5058172;28;20110;-21
2023/03/28 05:20:23;;;;;;;10.50;2.27;;;-0.80;72.90;;;;;;5057348;28;20049;-20
2023/03/28 05:22:49;;;;;;;7.80;1.67;;;-0.80;29.70;;;;;;5057554;28;20052;-21
2023/03/28 05:25:15;;;;;;;17.13;2.30;;;-0.70;22.20;;;;;;5056890;28;20049;-21
2023/03/28 05:27:41;;;;;;;20.30;2.53;;;-0.70;36.80;;;;;;5057173;28;20474;-20
2023/03/28 05:30:09;;;;;;;11.73;1.93;;;-0.60;51.10;;;;;;5057148;28;20045;-21
2023/03/28 05:32:36;;;;;;;15.43;1.90;;;-0.50;99.90;;;;;;5056694;28;20479;-20
2023/03/28 05:35:04;;;;;;;17.30;1.70;;;-0.40;99.90;;;;;;5056906;28;20053;-20
2023/03/28 05:37:30;;;;;;;22.67;2.40;;;-0.30;99.90;;;;;;5056898;28;20049;-21
2023/03/28 05:39:56;;;;;;;11.20;3.40;;;-0.20;99.90;;;;;;5056821;28;20487;-20
2023/03/28 05:42:22;;;;;;;14.47;2.13;;;-0.10;99.90;;;;;;5055888;28;20045;-20
2023/03/28 05:44:48;;;;;;;12.37;2.13;;;0.00;26.50;;;;;;5055902;28;20041;-21
2023/03/28 05:47:14;;;;;;;8.43;1.80;;;0.00;26.10;;;;;;5039420;28;20383;-20
2023/03/28 05:49:40;;;;;;;12.20;1.97;;;0.10;20.20;;;;;;5056545;28;20045;-20
2023/03/28 05:52:06;;;;;;;12.93;1.77;;;0.10;6.60;;;;;;5055318;28;20090;-21
2023/03/28 05:54:31;;;;;;;9.87;1.87;;;0.60;29.00;;;;;;5056283;28;20049;-20
2023/03/28 05:56:57;;;;;;;13.13;2.00;;;0.30;41.90;;;;;;5056581;28;20053;-21
2023/03/28 05:59:23;;;;;;;15.27;2.30;;;0.40;52.20;;;;;;5055344;28;20049;-21
2023/03/28 06:01:52;;;;;;;13.63;2.00;;;0.60;63.80;;;;;;5057096;28;20078;-20
2023/03/28 06:04:20;;;;;;;12.53;2.63;;;0.60;81.40;;;;;;5055243;28;20111;-21
2023/03/28 06:06:47;;;;;;;22.20;2.63;;;1.00;99.90;;;;;;5056303;28;20045;-21
2023/03/28 06:09:14;;;;;;;14.90;2.73;;;0.80;99.90;;;;;;5056406;28;20037;-20
2023/03/28 06:11:41;;;;;;;15.37;2.80;;;1.00;95.80;;;;;;5038598;28;20052;-20
2023/03/28 06:14:07;;;;;;;19.60;3.23;;;1.30;77.70;;;;;;5056393;28;20053;-20
2023/03/28 06:16:34;;;;;;;13.83;2.67;;;1.20;58.20;;;;;;5056124;28;20072;-20
2023/03/28 06:19:00;;;;;;;9.33;1.80;;;1.10;33.10;;;;;;5056251;28;20044;-20
2023/03/28 06:21:26;;;;;;;13.77;2.20;;;1.10;21.30;;;;;;5054962;28;20492;-20
2023/03/28 06:23:51;;;;;;;10.40;1.50;;;1.00;1.00;;;;;;5055834;28;20450;-20
2023/03/28 06:26:18;;;;;;;15.33;2.40;;;1.00;1.00;;;;;;5056642;28;20118;-21
2023/03/28 06:28:44;;;;;;;15.13;2.03;;;0.60;1.00;;;;;;5056000;28;20403;-20
2023/03/28 06:31:11;;;;;;;15.93;2.20;;;1.70;1.00;;;;;;5055189;28;20102;-20
2023/03/28 06:33:40;;;;;;;14.53;2.67;;;0.80;1.00;;;;;;5054777;28;20044;-21
2023/03/28 06:36:09;;;;;;;14.33;2.30;;;0.80;1.00;;;;;;5056736;28;20125;-21
2023/03/28 06:38:35;;;;;;;16.93;3.70;;;0.70;1.00;;;;;;5055821;28;20051;-20
2023/03/28 06:41:01;;;;;;;13.00;2.37;;;0.60;1.00;;;;;;5055782;28;20455;-20
2023/03/28 06:43:29;;;;;;;16.83;2.80;;;1.10;1.00;;;;;;5056016;28;20491;-20
2023/03/28 06:45:56;;;;;;;10.17;1.77;;;1.00;1.00;;;;;;5055652;28;20057;-20
2023/03/28 06:48:23;;;;;;;12.77;2.00;;;0.10;8.60;;;;;;5055883;28;20044;-20
2023/03/28 06:50:49;;;;;;;8.63;1.97;;;-0.10;22.70;;;;;;5055650;28;20525;-20
2023/03/28 06:53:15;;;;;;;16.23;2.83;;;0.40;51.00;;;;;;5054573;28;20088;-20
2023/03/28 06:55:42;;;;;;;10.03;2.30;;;0.40;80.90;;;;;;5054363;28;20391;-21
2023/03/28 06:58:08;;;;;;;15.10;2.83;;;0.60;99.90;;;;;;5055779;28;20049;-21
2023/03/28 07:00:34;;;;;;;11.33;1.83;;;0.60;94.00;;;;;;5038104;28;20057;-20
2023/03/28 07:03:00;;;;;;;19.90;2.50;;;1.00;98.50;;;;;;5055366;28;20137;-20
2023/03/28 07:05:26;;;;;;;17.07;2.83;;;1.30;99.90;;;;;;5055335;28;20049;-20
2023/03/28 07:07:52;;;;;;;14.23;2.20;;;1.70;99.90;;;;;;5054172;28;20122;-21
2023/03/28 07:10:18;;;;;;;11.47;2.03;;;1.10;99.90;;;;;;5055227;28;20499;-21
2023/03/28 07:12:44;;;;;;;14.83;2.20;;;2.30;99.90;;;;;;5053976;28;20037;-20
2023/03/28 07:15:10;;;;;;;10.13;1.83;;;2.60;1.00;;;;;;5055039;28;20044;-20
2023/03/28 07:17:36;;;;;;;6.97;1.47;;;2.70;1.00;;;;;;5055356;28;20049;-20
2023/03/28 07:20:03;;;;;;;5.47;1.40;;;2.80;99.90;;;;;;5053990;28;20545;-21
2023/03/28 07:22:29;;;;;;;5.43;1.10;;;2.90;99.90;;;;;;5055043;28;20099;-20
2023/03/28 07:24:56;;;;;;;13.65;2.03;;;3.50;99.90;;;;;;5037388;28;20037;-20
2023/03/28 07:27:21;;;;;;;5.75;1.20;;;3.10;1.00;;;;;;5054040;28;20080;-20
2023/03/28 07:29:47;;;;;;;7.38;1.42;;;3.30;99.90;;;;;;5055126;28;20084;-20
2023/03/28 07:32:14;;;;;;;6.18;1.20;;;3.40;99.90;;;;;;5054808;28;20124;-20
2023/03/28 07:34:40;;;;;;;9.57;1.33;;;3.50;1.00;;;;;;5053448;28;20376;-20
2023/03/28 07:37:07;;;;;;;9.13;1.20;;;3.70;1.00;;;;;;5037299;28;20055;-20
2023/03/28 07:39:33;;;;;;;7.25;2.22;;;3.80;1.00;;;;;;5054715;28;20041;-20
2023/03/28 07:41:59;;;;;;;10.68;1.52;;;4.00;99.90;;;;;;5053976;28;20045;-20
2023/03/28 07:44:25;;;;;;;6.20;1.00;;;4.10;99.90;;;;;;5054701;28;20045;-21
2023/03/28 07:46:51;;;;;;;6.22;2.42;;;4.20;99.90;;;;;;5054552;28;20376;-20
2023/03/28 07:49:19;;;;;;;6.30;1.13;;;4.50;1.00;;;;;;5054468;28;20491;-20
2023/03/28 07:51:46;;;;;;;7.15;1.05;;;4.60;99.90;;;;;;5053306;28;20053;-21
2023/03/28 07:54:16;;;;;;;9.57;1.67;;;4.70;1.00;;;;;;5054039;28;20057;-20
2023/03/28 07:56:46;;;;;;;9.52;1.27;;;4.80;1.00;;;;;;5054384;28;20084;-20
2023/03/28 07:59:12;;;;;;;11.15;1.05;;;5.00;99.90;;;;;;5036772;28;20521;-21
2023/03/28 08:01:42;;;;;;;7.32;0.80;;;5.10;99.90;;;;;;5054307;28;20041;-21
2023/03/28 08:04:10;;;;;;;9.32;0.93;;;5.20;14.20;;;;;;5055105;28;20385;-21
2023/03/28 08:06:39;;;;;;;7.07;0.80;;;5.30;1.00;;;;;;5054172;28;20056;-21
2023/03/28 08:09:10;;;;;;;5.00;0.63;;;5.50;99.90;;;;;;5053498;28;20063;-21
2023/03/28 08:11:37;;;;;;;3.05;0.82;;;5.60;99.90;;;;;;5054304;28;20067;-21
2023/03/28 08:14:08;;;;;;;7.47;0.70;;;5.70;99.90;;;;;;5054087;28;20049;-21
2023/03/28 08:16:33;;;;;;;7.82;1.05;;;5.90;99.90;;;;;;5053989;28;20045;-21
2023/03/28 08:18:59;;;;;;;11.05;1.08;;;6.20;99.90;;;;;;5052730;28;20056;-21
2023/03/28 08:21:26;;;;;;;5.72;0.70;;;6.30;99.90;;;;;;5052962;28;20049;-21
2023/03/28 08:23:52;;;;;;;5.72;0.77;;;6.40;99.90;;;;;;5053923;28;20048;-21
2023/03/28 08:26:18;;;;;;;3.83;0.73;;;6.60;1.00;;;;;;5053167;28;20152;-21
2023/03/28 08:28:44;;;;;;;8.48;0.88;;;6.40;99.90;;;;;;5054413;28;20055;-21
2023/03/28 08:31:13;;;;;;;5.38;0.90;;;6.20;99.90;;;;;;5053746;28;20048;-21
2023/03/28 08:33:42;;;;;;;2.22;0.28;;;6.30;1.00;;;;;;5054009;28;20446;-21
2023/03/28 08:36:13;;;;;;;5.20;0.68;;;6.20;99.90;;;;;;5053692;28;20045;-21
2023/03/28 08:38:44;;;;;;;4.95;0.63;;;6.20;99.90;;;;;;5052622;28;20047;-20
2023/03/28 08:41:28;;;;;;;4.97;1.08;;;6.20;99.90;;;;;;5052185;28;20072;-21
2023/03/28 08:44:18;;;;;;;6.90;0.75;;;6.10;99.90;;;;;;5053891;28;20491;-21
2023/03/28 08:46:51;;;;;;;3.65;0.80;;;6.20;1.00;;;;;;5054370;28;20384;-21
2023/03/28 08:49:18;;;;;;;4.95;0.68;;;6.20;65.80;;;;;;5054203;28;20056;-21
2023/03/28 08:51:47;;;;;;;6.45;1.02;;;6.30;64.80;;;;;;5051794;28;20068;-21
2023/03/28 08:54:25;;;;;;;5.57;1.00;;;6.10;1.00;;;;;;5053814;28;20052;-21
2023/03/28 08:56:54;;;;;;;9.13;1.20;;;6.20;70.10;;;;;;5053500;28;20133;-21
2023/03/28 08:59:50;;;;;;;4.88;0.70;;;6.20;99.90;;;;;;5053712;28;20041;-21
2023/03/28 09:02:19;;;;;;;6.35;1.30;;;6.30;1.00;;;;;;5036223;28;20099;-21
2023/03/28 09:04:45;;;;;;;5.55;1.20;;;6.30;99.90;;;;;;5052466;28;20045;-21
2023/03/28 09:07:25;;;;;;;8.73;1.10;;;6.40;1.00;;;;;;5053934;28;20111;-21
2023/03/28 09:10:09;;;;;;;9.23;0.90;;;6.70;1.00;;;;;;5054237;28;20048;-21
2023/03/28 09:12:45;;;;;;;6.28;0.93;;;6.60;99.90;;;;;;5053375;28;20047;-21
2023/03/28 09:15:29;;;;;;;2.67;0.40;;;6.70;99.90;;;;;;5053334;28;20049;-21
2023/03/28 09:18:01;;;;;;;4.43;0.93;;;6.90;1.00;;;;;;5053661;28;20121;-21
2023/03/28 09:21:00;;;;;;;3.72;0.73;;;7.40;1.00;;;;;;5053859;28;20056;-21
2023/03/28 09:23:44;;;;;;;4.18;0.93;;;7.50;1.00;;;;;;5054198;28;20048;-21
2023/03/28 09:26:16;;;;;;;3.75;0.70;;;7.20;1.00;;;;;;5053311;28;20049;-21
2023/03/28 09:28:53;;;;;;;4.88;0.75;;;6.90;99.90;;;;;;5053562;28;20049;-21
2023/03/28 09:31:26;;;;;;;2.72;0.50;;;6.90;99.90;;;;;;5053418;28;20593;-22
2023/03/28 09:33:57;;;;;;;3.95;0.52;;;7.30;99.90;;;;;;5053836;28;20112;-21
2023/03/28 09:36:27;;;;;;;3.92;0.77;;;7.50;13.40;;;;;;5053237;28;20399;-21
2023/03/28 09:38:56;;;;;;;4.82;0.40;;;7.40;1.00;;;;;;5053646;28;20045;-21
2023/03/28 09:41:30;;;;;;;2.85;0.68;;;7.30;99.90;;;;;;5053637;28;20041;-21
2023/03/28 09:43:59;;;;;;;5.13;0.95;;;7.50;1.00;;;;;;5053675;28;20132;-21
2023/03/28 09:46:47;;;;;;;3.55;0.43;;;7.50;1.00;;;;;;5052929;28;20049;-21
2023/03/28 09:49:19;;;;;;;1.77;0.38;;;7.50;99.90;;;;;;5052302;28;20495;-21
2023/03/28 09:51:45;;;;;;;4.55;0.63;;;7.50;99.90;;;;;;5052703;28;20060;-22
2023/03/28 09:54:11;;;;;;;4.75;0.47;;;7.80;99.90;;;;;;5051824;28;20067;-22
2023/03/28 09:56:40;;;;;;;3.42;0.52;;;7.80;99.90;;;;;;5052918;28;20053;-22
2023/03/28 09:59:25;;;;;;;3.78;0.60;;;7.80;99.90;;;;;;5055298;28;20102;-22
2023/03/28 10:01:52;;;;;;;2.30;0.35;;;7.60;99.90;;;;;;5056609;28;20045;-21
2023/03/28 10:04:31;;;;;;;1.38;0.30;;;7.60;99.90;;;;;;5056504;28;20045;-21
2023/03/28 10:07:08;;;;;;;4.25;0.98;;;7.60;99.90;;;;;;5057084;28;20067;-21
2023/03/28 10:09:47;;;;;;;4.68;0.40;;;7.30;99.90;;;;;;5056390;28;20088;-21
2023/03/28 10:12:20;;;;;;;5.05;0.63;;;7.30;99.90;;;;;;5056365;28;20049;-21
2023/03/28 10:14:46;;;;;;;3.22;0.70;;;7.10;99.90;;;;;;5055847;28;20080;-21
2023/03/28 10:17:15;;;;;;;3.35;0.60;;;7.10;99.90;;;;;;5055356;28;20076;-21
2023/03/28 10:19:44;;;;;;;4.97;1.02;;;7.10;99.90;;;;;;5055044;28;20131;-21
2023/03/28 10:22:26;;;;;;;4.97;0.75;;;7.10;99.90;;;;;;5056706;28;20052;-21
2023/03/28 10:24:53;;;;;;;4.03;0.43;;;7.10;99.90;;;;;;5056253;28;20487;-21
2023/03/28 10:27:39;;;;;;;5.20;0.52;;;7.20;99.90;;;;;;5054960;28;20585;-21
2023/03/28 10:30:25;;;;;;;5.03;0.60;;;7.90;99.90;;;;;;5055989;28;20570;-21
2023/03/28 10:33:16;;;;;;;3.92;0.50;;;8.50;99.90;;;;;;5055951;28;20045;-21
2023/03/28 10:35:53;;;;;;;2.90;0.57;;;8.50;99.90;;;;;;5054731;28;20056;-21
2023/03/28 10:38:20;;;;;;;4.55;0.90;;;8.60;99.90;;;;;;5056739;28;20075;-21
2023/03/28 10:41:24;;;;;;;6.38;1.45;;;8.00;99.90;;;;;;5055829;28;20048;-21
2023/03/28 10:43:50;;;;;;;4.05;0.93;;;7.70;99.90;;;;;;5054782;28;20487;-21
2023/03/28 10:46:22;;;;;;;7.03;1.50;;;7.80;99.90;;;;;;5054684;28;20127;-22
2023/03/28 10:49:01;;;;;;;3.25;1.00;;;8.20;99.90;;;;;;5055652;28;20053;-21
2023/03/28 10:51:30;;;;;;;5.38;1.45;;;8.50;99.90;;;;;;5055285;28;20160;-21
2023/03/28 10:54:20;;;;;;;5.50;1.10;;;9.20;99.90;;;;;;5055568;28;20056;-21
2023/03/28 10:56:51;;;;;;;3.97;1.30;;;9.10;99.90;;;;;;5055482;28;20045;-22
2023/03/28 10:59:38;;;;;;;5.20;0.98;;;8.70;99.90;;;;;;5055261;28;20527;-21
2023/03/28 11:02:30;;;;;;;3.80;0.95;;;8.30;99.90;;;;;;5055306;28;20106;-21
2023/03/28 11:05:32;;;;;;;2.90;0.90;;;8.00;99.90;;;;;;5055001;28;20463;-21
2023/03/28 11:08:20;;;;;;;5.22;1.30;;;7.80;99.90;;;;;;5055940;28;20091;-22
2023/03/28 11:11:06;;;;;;;3.15;0.90;;;7.90;99.90;;;;;;5054248;28;20052;-21
2023/03/28 11:14:05;;;;;;;3.78;1.13;;;7.90;99.90;;;;;;5055818;28;20048;-21
2023/03/28 11:16:49;;;;;;;7.90;1.80;;;7.90;99.90;;;;;;5047609;28;20395;-20
2023/03/28 11:19:58;;;;;;;6.25;1.30;;;7.90;99.90;;;;;;5055101;28;20049;-21
2023/03/28 11:22:51;;;;;;;7.85;1.23;;;8.20;99.90;;;;;;5055085;28;20045;-21
2023/03/28 11:26:01;;;;;;;5.65;1.45;;;8.50;99.90;;;;;;5055019;28;20049;-21
2023/03/28 11:28:46;;;;;;;9.10;1.17;;;8.90;99.90;;;;;;5054329;28;20092;-21
2023/03/28 11:31:16;;;;;;;4.75;1.60;;;8.90;99.90;;;;;;5054877;28;20053;-21
2023/03/28 11:33:56;;;;;;;6.18;1.75;;;8.70;99.90;;;;;;5055175;28;20052;-22
2023/03/28 11:36:40;;;;;;;5.43;1.60;;;9.00;99.90;;;;;;5055689;28;20048;-21
2023/03/28 11:39:47;;;;;;;5.63;1.30;;;8.80;99.90;;;;;;5054808;28;20045;-21
2023/03/28 11:42:30;;;;;;;3.08;0.88;;;9.00;99.90;;;;;;5054447;28;20049;-21
2023/03/28 11:44:59;;;;;;;;;;;9.20;99.90;;;;;;5055957;28;20383;-21
2023/03/28 11:47:36;;;;;;;7.80;1.13;;;9.30;99.90;;;;;;5054607;28;19927;-21
2023/03/28 11:50:05;;;;;;;6.95;2.13;;;9.30;99.90;;;;;;5060625;28;20048;-21
2023/03/28 11:52:37;;;;;;;8.35;1.23;;;9.30;99.90;;;;;;5074339;28;20048;-21
2023/03/28 11:55:25;;;;;;;6.40;1.38;;;9.20;99.90;;;;;;5074747;28;20084;-21
2023/03/28 11:58:08;;;;;;;5.38;1.38;;;9.10;99.90;;;;;;5074693;28;20097;-21
2023/03/28 12:00:38;;;;;;;5.82;2.05;;;9.30;99.90;;;;;;5073365;28;20436;-21
2023/03/28 12:03:22;;;;;;;5.07;1.40;;;9.50;99.90;;;;;;5075113;28;20497;-21
2023/03/28 12:06:11;;;;;;;6.88;1.42;;;9.10;99.90;;;;;;5074212;28;20055;-21
2023/03/28 12:08:56;;;;;;;5.47;1.10;;;8.70;99.90;;;;;;5074206;28;20052;-21
2023/03/28 12:12:03;;;;;;;5.95;1.50;;;8.40;99.90;;;;;;5074075;28;20048;-21
2023/03/28 12:14:49;;;;;;;5.57;2.17;;;9.20;99.90;;;;;;5074016;28;20135;-21
2023/03/28 12:17:21;;;;;;;6.05;1.25;;;9.60;99.90;;;;;;5074040;28;20048;-22
2023/03/28 12:19:47;;;;;;;7.82;3.33;;;9.70;99.90;;;;;;5074091;28;20098;-21
2023/03/28 12:22:52;;;;;;;6.53;2.75;;;9.90;99.90;;;;;;5073713;28;20041;-21
2023/03/28 12:25:34;;;;;;;4.90;1.30;;;9.90;99.90;;;;;;5072265;28;20045;-21
2023/03/28 12:28:37;;;;;;;5.10;1.35;;;9.90;99.90;;;;;;5071154;28;20092;-21
2023/03/28 12:31:27;;;;;;;7.20;1.45;;;9.60;99.90;;;;;;5040092;28;20110;-21
2023/03/28 12:34:23;;;;;;;2.70;1.50;;;9.10;99.90;;;;;;5072381;28;20483;-21
2023/03/28 12:37:13;;;;;;;5.32;1.90;;;9.30;99.90;;;;;;5074029;28;20474;-21
2023/03/28 12:39:48;;;;;;;4.97;1.42;;;9.30;99.90;;;;;;5072513;28;20044;-21
2023/03/28 12:42:19;;;;;;;7.00;1.85;;;9.50;99.90;;;;;;5073706;28;20087;-21
2023/03/28 12:44:52;;;;;;;5.20;1.95;;;9.30;99.90;;;;;;5073066;28;20056;-21
2023/03/28 12:47:21;;;;;;;;;;;9.10;99.90;;;;;;5074005;28;20084;-21
2023/03/28 12:50:13;;;;;;;5.60;1.95;;;9.00;99.90;;;;;;5072133;28;19928;-21
2023/03/28 12:52:42;;;;;;;2.65;1.20;;;9.10;99.90;;;;;;5074390;28;20048;-21
2023/03/28 12:55:23;;;;;;;5.93;1.85;;;9.20;99.90;;;;;;5072374;28;20048;-21
2023/03/28 12:57:51;;;;;;;7.20;1.73;;;8.80;99.90;;;;;;5072355;28;20048;-21
2023/03/28 13:00:40;;;;;;;8.80;2.00;;;8.70;99.90;;;;;;5055638;28;20088;-21
2023/03/28 13:03:25;;;;;;;8.32;2.28;;;8.90;99.90;;;;;;5072595;28;20111;-21
2023/03/28 13:06:38;;;;;;;3.05;1.52;;;8.70;99.90;;;;;;5074045;28;20131;-21
2023/03/28 13:09:54;;;;;;;5.38;1.70;;;9.00;99.90;;;;;;5072463;28;20059;-21
2023/03/28 13:12:51;;;;;;;5.47;1.63;;;9.40;99.90;;;;;;5072010;28;20060;-21
2023/03/28 13:15:19;;;;;;;5.60;1.58;;;9.20;99.90;;;;;;5073606;28;20510;-21
2023/03/28 13:17:47;;;;;;;7.38;1.90;;;8.80;99.90;;;;;;5073428;28;20044;-24
2023/03/28 13:20:16;;;;;;;4.47;1.50;;;8.50;99.90;;;;;;5073404;28;20076;-21
2023/03/28 13:22:56;;;;;;;5.22;1.75;;;8.40;99.90;;;;;;5073338;28;20491;-21